createdAt,value
2022-09-04T00:00:13.886Z,101336.90
2022-09-04T00:03:27.203Z,101338.70
2022-09-04T00:05:58.711Z,101336.33
2022-09-04T00:08:37.896Z,101338.18
2022-09-04T00:11:34.998Z,101340.20
2022-09-04T00:14:30.960Z,101332.48
2022-09-04T00:17:04.101Z,101335.04
2022-09-04T00:19:43.420Z,101332.85
2022-09-04T00:22:26.126Z,101333.46
2022-09-04T00:25:21.184Z,101333.41
2022-09-04T00:27:55.592Z,101333.32
2022-09-04T00:30:24.523Z,101332.50
2022-09-04T00:33:32.097Z,101330.50
2022-09-04T00:36:03.725Z,101338.14
2022-09-04T00:38:51.118Z,101341.10
2022-09-04T00:41:31.099Z,101341.05
2022-09-04T00:44:28.483Z,101339.56
2022-09-04T00:47:34.171Z,101347.73
2022-09-04T00:50:43.299Z,101348.33
2022-09-04T00:53:32.337Z,101351.61
2022-09-04T00:56:02.740Z,101345.90
2022-09-04T00:59:01.931Z,101343.39
2022-09-04T01:01:29.996Z,101345.73
2022-09-04T01:04:24.685Z,101350.17
2022-09-04T01:06:58.565Z,101350.80
2022-09-04T01:09:35.346Z,101346.98
2022-09-04T01:12:18.354Z,101348.10
2022-09-04T01:15:25.679Z,101354.75
2022-09-04T01:17:56.110Z,101354.03
2022-09-04T01:20:52.529Z,101351.49
2022-09-04T01:23:36.927Z,101354.60
2022-09-04T01:26:10.062Z,101354.19
2022-09-04T01:28:51.076Z,101354.65
2022-09-04T01:31:44.638Z,101353.99
2022-09-04T01:34:22.581Z,101357.02
2022-09-04T01:36:50.307Z,101361.48
2022-09-04T01:39:23.568Z,101364.05
2022-09-04T01:42:05.407Z,101356.78
2022-09-04T01:44:34.374Z,101360.66
2022-09-04T01:47:18.256Z,101356.56
2022-09-04T01:49:58.255Z,101356.46
2022-09-04T01:53:02.624Z,101357.46
2022-09-04T01:55:37.519Z,101356.07
2022-09-04T01:58:46.281Z,101357.09
2022-09-04T02:01:44.135Z,101357.41
2022-09-04T02:04:30.984Z,101358.37
2022-09-04T02:07:19.052Z,101355.31
2022-09-04T02:09:53.803Z,101360.13
2022-09-04T02:13:02.843Z,101360.77
2022-09-04T02:15:31.321Z,101356.09
2022-09-04T02:18:11.743Z,101359.79
2022-09-04T02:20:47.263Z,101358.39
2022-09-04T02:23:53.526Z,101362.58
2022-09-04T02:26:30.357Z,101360.18
2022-09-04T02:29:15.250Z,101360.39
2022-09-04T02:32:07.386Z,101360.42
2022-09-04T02:34:48.870Z,101357.02
2022-09-04T02:37:35.529Z,101358.13
2022-09-04T02:40:12.642Z,101357.00
2022-09-04T02:42:43.661Z,101357.05
2022-09-04T02:45:49.022Z,101355.11
2022-09-04T02:48:38.231Z,101359.44
2022-09-04T02:51:24.358Z,101360.02
2022-09-04T02:54:12.662Z,101358.98
2022-09-04T02:57:09.292Z,101356.42
2022-09-04T02:59:55.010Z,101353.69
2022-09-04T03:02:33.735Z,101351.42
2022-09-04T03:05:19.678Z,101354.31
2022-09-04T03:08:14.522Z,101356.21
2022-09-04T03:11:02.974Z,101353.69
2022-09-04T03:13:46.884Z,101351.98
2022-09-04T03:16:37.992Z,101359.54
2022-09-04T03:19:32.974Z,101362.28
2022-09-04T03:22:11.525Z,101365.19
2022-09-04T03:25:04.085Z,101363.95
2022-09-04T03:27:33.480Z,101364.64
2022-09-04T03:30:06.872Z,101367.17
2022-09-04T03:32:54.357Z,101367.16
2022-09-04T03:35:28.512Z,101368.70
2022-09-04T03:38:09.123Z,101367.76
2022-09-04T03:40:36.803Z,101364.83
2022-09-04T03:43:24.040Z,101364.36
2022-09-04T03:46:03.694Z,101364.32
2022-09-04T03:48:48.071Z,101369.48
2022-09-04T03:51:25.912Z,101371.91
2022-09-04T03:54:42.499Z,101373.61
2022-09-04T03:57:28.863Z,101373.61
2022-09-04T04:00:07.831Z,101376.16
2022-09-04T04:03:01.574Z,101384.77
2022-09-04T04:05:42.332Z,101387.22
2022-09-04T04:08:12.846Z,101386.81
2022-09-04T04:11:03.267Z,101389.11
2022-09-04T04:13:46.197Z,101390.75
2022-09-04T04:16:40.627Z,101388.34
2022-09-04T04:19:28.471Z,101389.75
2022-09-04T04:22:26.727Z,101393.02
2022-09-04T04:24:57.535Z,101396.18
2022-09-04T04:27:44.280Z,101397.10
2022-09-04T04:30:14.509Z,101400.90
2022-09-04T04:33:08.946Z,101402.23
2022-09-04T04:35:45.685Z,101402.98
2022-09-04T04:38:32.442Z,101405.94
2022-09-04T04:41:21.553Z,101407.43
2022-09-04T04:44:05.048Z,101411.95
2022-09-04T04:47:09.886Z,101414.94
2022-09-04T04:50:00.261Z,101411.46
2022-09-04T04:52:42.379Z,101414.45
2022-09-04T04:55:34.793Z,101419.30
2022-09-04T04:58:27.833Z,101424.65
2022-09-04T05:01:07.109Z,101426.83
2022-09-04T05:03:48.592Z,101430.92
2022-09-04T05:06:30.823Z,101430.36
2022-09-04T05:09:22.020Z,101427.85
2022-09-04T05:11:55.613Z,101429.73
2022-09-04T05:14:39.784Z,101434.06
2022-09-04T05:17:47.047Z,101438.13
2022-09-04T05:20:24.231Z,101437.34
2022-09-04T05:23:29.683Z,101441.19
2022-09-04T05:26:13.013Z,101441.34
2022-09-04T05:28:40.818Z,101445.34
2022-09-04T05:31:27.236Z,101448.42
2022-09-04T05:34:26.917Z,101450.41
2022-09-04T05:37:08.236Z,101452.38
2022-09-04T05:39:42.231Z,101453.80
2022-09-04T05:42:38.020Z,101455.14
2022-09-04T05:45:32.517Z,101454.31
2022-09-04T05:48:15.179Z,101457.96
2022-09-04T05:51:00.902Z,101463.17
2022-09-04T05:53:51.630Z,101465.65
2022-09-04T05:57:12.297Z,101465.22
2022-09-04T05:59:47.888Z,101466.88
2022-09-04T06:02:42.214Z,101469.66
2022-09-04T06:05:32.401Z,101470.02
2022-09-04T06:08:28.849Z,101477.29
2022-09-04T06:11:05.582Z,101481.89
2022-09-04T06:13:45.537Z,101482.30
2022-09-04T06:16:45.679Z,101488.52
2022-09-04T06:19:32.125Z,101487.95
2022-09-04T06:22:08.945Z,101489.79
2022-09-04T06:25:14.364Z,101492.10
2022-09-04T06:27:55.267Z,101493.87
2022-09-04T06:30:31.203Z,101501.09
2022-09-04T06:33:06.296Z,101505.13
2022-09-04T06:35:43.834Z,101509.44
2022-09-04T06:38:22.116Z,101515.44
2022-09-04T06:41:30.670Z,101519.02
2022-09-04T06:44:07.490Z,101514.90
2022-09-04T06:46:52.652Z,101514.80
2022-09-04T06:49:30.618Z,101512.38
2022-09-04T06:52:38.933Z,101512.63
2022-09-04T06:55:15.282Z,101514.98
2022-09-04T06:58:12.600Z,101513.47
2022-09-04T07:00:53.475Z,101511.89
2022-09-04T07:03:34.613Z,101514.46
2022-09-04T07:06:17.140Z,101513.33
2022-09-04T07:09:01.001Z,101522.27
2022-09-04T07:11:35.802Z,101525.13
2022-09-04T07:14:21.971Z,101529.58
2022-09-04T07:17:17.613Z,101532.69
2022-09-04T07:20:12.855Z,101533.48
2022-09-04T07:23:11.970Z,101541.32
2022-09-04T07:25:59.852Z,101544.17
2022-09-04T07:28:57.255Z,101538.65
2022-09-04T07:31:47.028Z,101537.50
2022-09-04T07:34:44.784Z,101533.73
2022-09-04T07:37:29.865Z,101535.11
2022-09-04T07:40:06.537Z,101537.48
2022-09-04T07:42:53.791Z,101536.67
2022-09-04T07:45:27.851Z,101538.09
2022-09-04T07:48:10.589Z,101541.41
2022-09-04T07:51:05.953Z,101543.54
2022-09-04T07:53:43.877Z,101544.06
2022-09-04T07:56:40.513Z,101548.80
2022-09-04T07:59:20.867Z,101550.12
2022-09-04T08:02:11.812Z,101546.73
2022-09-04T08:04:58.718Z,101548.73
2022-09-04T08:07:51.703Z,101550.64
2022-09-04T08:10:48.521Z,101556.48
2022-09-04T08:13:43.220Z,101559.36
2022-09-04T08:16:26.158Z,101563.76
2022-09-04T08:19:21.294Z,101564.01
2022-09-04T08:21:52.875Z,101570.69
2022-09-04T08:24:29.766Z,101566.75
2022-09-04T08:27:24.988Z,101565.36
2022-09-04T08:30:06.733Z,101571.36
2022-09-04T08:33:06.999Z,101571.34
2022-09-04T08:35:46.911Z,101576.65
2022-09-04T08:38:34.121Z,101571.73
2022-09-04T08:41:16.857Z,101571.36
2022-09-04T08:44:23.758Z,101575.14
2022-09-04T08:47:10.518Z,101572.78
2022-09-04T08:50:13.744Z,101577.79
2022-09-04T08:53:06.212Z,101579.13
2022-09-04T08:55:56.091Z,101584.60
2022-09-04T08:59:01.493Z,101581.86
2022-09-04T09:01:58.873Z,101581.53
2022-09-04T09:04:51.927Z,101581.80
2022-09-04T09:07:50.824Z,101582.14
2022-09-04T09:10:43.312Z,101580.77
2022-09-04T09:13:38.786Z,101581.73
2022-09-04T09:16:20.561Z,101586.08
2022-09-04T09:18:51.523Z,101581.35
2022-09-04T09:21:34.715Z,101581.27
2022-09-04T09:24:21.282Z,101580.02
2022-09-04T09:27:11.380Z,101585.68
2022-09-04T09:29:51.350Z,101590.27
2022-09-04T09:33:04.247Z,101587.24
2022-09-04T09:35:58.033Z,101587.54
2022-09-04T09:39:05.785Z,101586.61
2022-09-04T09:41:51.858Z,101581.38
2022-09-04T09:44:30.093Z,101583.29
2022-09-04T09:47:19.769Z,101581.24
2022-09-04T09:50:32.209Z,101576.82
2022-09-04T09:53:24.683Z,101581.80
2022-09-04T09:56:03.741Z,101579.88
2022-09-04T09:58:53.138Z,101588.59
2022-09-04T10:01:53.516Z,101586.54
2022-09-04T10:04:40.328Z,101585.50
2022-09-04T10:07:40.436Z,101579.48
2022-09-04T10:10:42.502Z,101583.61
2022-09-04T10:13:35.063Z,101590.77
2022-09-04T10:16:44.974Z,101585.65
2022-09-04T10:19:29.839Z,101584.82
2022-09-04T10:22:20.058Z,101584.35
2022-09-04T10:25:13.980Z,101584.14
2022-09-04T10:28:19.562Z,101580.09
2022-09-04T10:31:08.259Z,101576.15
2022-09-04T10:33:44.826Z,101574.04
2022-09-04T10:36:35.365Z,101580.79
2022-09-04T10:39:41.129Z,101583.02
2022-09-04T10:42:21.376Z,101573.30
2022-09-04T10:45:27.403Z,101572.41
2022-09-04T10:48:12.716Z,101574.02
2022-09-04T10:50:46.481Z,101569.47
2022-09-04T10:53:39.451Z,101567.58
2022-09-04T10:56:23.178Z,101565.43
2022-09-04T10:59:11.119Z,101562.99
2022-09-04T11:02:10.768Z,101560.69
2022-09-04T11:05:36.487Z,101557.71
2022-09-04T11:08:13.951Z,101560.95
2022-09-04T11:10:54.351Z,101560.73
2022-09-04T11:13:40.421Z,101555.05
2022-09-04T11:16:11.022Z,101556.66
2022-09-04T11:19:10.966Z,101552.74
2022-09-04T11:22:00.652Z,101554.70
2022-09-04T11:25:09.503Z,101555.42
2022-09-04T11:27:59.246Z,101554.74
2022-09-04T11:30:47.954Z,101561.30
2022-09-04T11:33:38.910Z,101553.35
2022-09-04T11:36:39.548Z,101549.09
2022-09-04T11:39:38.276Z,101550.68
2022-09-04T11:42:18.294Z,101550.32
2022-09-04T11:45:07.833Z,101545.70
2022-09-04T11:48:00.089Z,101540.89
2022-09-04T11:50:52.855Z,101538.05
2022-09-04T11:53:40.721Z,101535.59
2022-09-04T11:56:36.410Z,101532.92
2022-09-04T11:59:48.846Z,101537.73
2022-09-04T12:03:13.513Z,101545.55
2022-09-04T12:06:14.761Z,101543.41
2022-09-04T12:08:53.648Z,101545.37
2022-09-04T12:11:56.625Z,101541.64
2022-09-04T12:14:30.425Z,101543.23
2022-09-04T12:17:19.392Z,101544.64
2022-09-04T12:20:14.884Z,101547.85
2022-09-04T12:22:54.590Z,101549.84
2022-09-04T12:25:40.668Z,101547.19
2022-09-04T12:28:40.178Z,101548.23
2022-09-04T12:31:47.038Z,101550.35
2022-09-04T12:34:50.961Z,101547.31
2022-09-04T12:37:47.231Z,101547.15
2022-09-04T12:40:34.743Z,101544.30
2022-09-04T12:43:25.364Z,101550.20
2022-09-04T12:46:19.464Z,101546.45
2022-09-04T12:49:18.762Z,101542.72
2022-09-04T12:52:19.265Z,101551.43
2022-09-04T12:55:07.649Z,101551.08
2022-09-04T12:57:48.072Z,101551.40
2022-09-04T13:00:17.561Z,101553.73
2022-09-04T13:03:23.500Z,101554.28
2022-09-04T13:06:09.894Z,101553.56
2022-09-04T13:08:53.439Z,101551.77
2022-09-04T13:11:27.002Z,101551.77
2022-09-04T13:14:23.655Z,101554.09
2022-09-04T13:17:21.941Z,101553.02
2022-09-04T13:20:06.106Z,101554.61
2022-09-04T13:22:52.970Z,101556.23
2022-09-04T13:25:52.560Z,101559.05
2022-09-04T13:28:35.809Z,101561.20
2022-09-04T13:31:18.885Z,101560.15
2022-09-04T13:34:21.046Z,101562.79
2022-09-04T13:37:21.328Z,101562.42
2022-09-04T13:40:15.232Z,101562.09
2022-09-04T13:42:52.238Z,101562.10
2022-09-04T13:45:26.873Z,101561.38
2022-09-04T13:48:16.754Z,101562.80
2022-09-04T13:50:55.894Z,101567.61
2022-09-04T13:53:34.208Z,101563.67
2022-09-04T13:56:10.208Z,101568.12
2022-09-04T13:58:51.386Z,101569.18
2022-09-04T14:01:29.864Z,101567.95
2022-09-04T14:04:02.812Z,101564.95
2022-09-04T14:06:32.659Z,101557.81
2022-09-04T14:09:05.318Z,101557.13
2022-09-04T14:11:43.220Z,101559.43
2022-09-04T14:14:55.778Z,101559.95
2022-09-04T14:17:34.405Z,101561.36
2022-09-04T14:20:26.733Z,101563.30
2022-09-04T14:23:20.562Z,101565.77
2022-09-04T14:25:51.188Z,101561.15
2022-09-04T14:28:30.789Z,101562.92
2022-09-04T14:31:28.387Z,101563.27
2022-09-04T14:34:13.803Z,101564.00
2022-09-04T14:36:54.563Z,101563.65
2022-09-04T14:40:03.297Z,101559.75
2022-09-04T14:42:42.766Z,101557.45
2022-09-04T14:45:36.779Z,101560.66
2022-09-04T14:48:10.136Z,101559.44
2022-09-04T14:51:11.459Z,101562.98
2022-09-04T14:53:46.038Z,101559.80
2022-09-04T14:56:13.732Z,101560.85
2022-09-04T14:58:50.739Z,101560.49
2022-09-04T15:01:22.193Z,101559.96
2022-09-04T15:04:05.102Z,101556.23
2022-09-04T15:07:01.066Z,101556.77
2022-09-04T15:09:41.326Z,101560.67
2022-09-04T15:12:34.407Z,101566.70
2022-09-04T15:15:22.356Z,101569.39
2022-09-04T15:18:11.002Z,101570.45
2022-09-04T15:20:46.534Z,101576.30
2022-09-04T15:23:27.634Z,101573.45
2022-09-04T15:26:28.408Z,101570.06
2022-09-04T15:29:04.523Z,101575.05
2022-09-04T15:31:36.611Z,101577.02
2022-09-04T15:34:29.643Z,101577.21
2022-09-04T15:37:29.777Z,101574.36
2022-09-04T15:40:10.870Z,101575.79
2022-09-04T15:42:52.472Z,101581.83
2022-09-04T15:45:27.298Z,101585.01
2022-09-04T15:48:16.598Z,101589.96
2022-09-04T15:51:10.338Z,101594.21
2022-09-04T15:53:46.691Z,101593.51
2022-09-04T15:56:17.052Z,101596.88
2022-09-04T15:59:06.078Z,101596.69
2022-09-04T16:01:55.152Z,101597.20
2022-09-04T16:04:32.955Z,101595.42
2022-09-04T16:07:19.709Z,101601.63
2022-09-04T16:10:07.012Z,101599.84
2022-09-04T16:13:25.362Z,101598.77
2022-09-04T16:16:03.523Z,101598.41
2022-09-04T16:18:37.915Z,101598.38
2022-09-04T16:21:16.420Z,101598.23
2022-09-04T16:23:44.693Z,101600.67
2022-09-04T16:26:17.558Z,101596.41
2022-09-04T16:28:55.995Z,101600.83
2022-09-04T16:31:31.384Z,101597.57
2022-09-04T16:34:21.790Z,101598.61
2022-09-04T16:37:01.978Z,101604.28
2022-09-04T16:39:56.211Z,101607.27
2022-09-04T16:42:37.574Z,101607.41
2022-09-04T16:45:22.635Z,101603.85
2022-09-04T16:48:34.171Z,101606.14
2022-09-04T16:51:30.471Z,101610.20
2022-09-04T16:54:31.007Z,101613.88
2022-09-04T16:57:12.256Z,101615.44
2022-09-04T16:59:48.639Z,101622.34
2022-09-04T17:02:41.688Z,101622.85
2022-09-04T17:05:35.197Z,101620.15
2022-09-04T17:08:18.416Z,101613.02
2022-09-04T17:10:52.396Z,101611.73
2022-09-04T17:13:29.089Z,101613.98
2022-09-04T17:16:12.042Z,101614.64
2022-09-04T17:18:47.746Z,101619.20
2022-09-04T17:27:24.607Z,101627.48
2022-09-04T17:28:55.271Z,101638.59
2022-09-04T17:29:11.749Z,101642.61
2022-09-04T17:30:50.502Z,101645.92
2022-09-04T17:37:56.549Z,101647.11
2022-09-04T17:40:43.404Z,101652.54
2022-09-04T17:40:54.445Z,101660.10
2022-09-04T17:42:33.194Z,101660.21
2022-09-04T17:45:04.151Z,101665.66
2022-09-04T17:47:38.150Z,101665.98
2022-09-04T17:50:28.204Z,101672.86
2022-09-04T17:53:01.928Z,101675.11
2022-09-04T17:55:39.069Z,101678.61
2022-09-04T17:58:24.420Z,101682.64
2022-09-04T18:01:15.222Z,101685.44
2022-09-04T18:04:21.262Z,101689.06
2022-09-04T18:08:06.524Z,101693.09
2022-09-04T18:10:04.069Z,101691.11
2022-09-04T18:12:39.669Z,101689.98
2022-09-04T18:15:34.755Z,101694.50
2022-09-04T18:18:08.958Z,101699.75
2022-09-04T18:20:51.908Z,101703.59
2022-09-04T18:23:31.287Z,101706.56
2022-09-04T18:26:05.655Z,101710.57
2022-09-04T18:28:47.382Z,101716.16
2022-09-04T18:37:12.113Z,101722.79
2022-09-04T18:37:18.588Z,101723.23
2022-09-04T18:37:44.921Z,101725.64
2022-09-04T18:42:45.713Z,101729.45
2022-09-04T18:50:23.519Z,101735.34
2022-09-04T18:50:35.601Z,101741.17
2022-09-04T18:50:46.487Z,101736.70
2022-09-04T18:52:06.226Z,101741.92
2022-09-04T18:54:41.780Z,101741.88
2022-09-04T18:58:05.410Z,101744.64
2022-09-04T19:00:37.506Z,101746.09
2022-09-04T19:03:37.026Z,101747.42
2022-09-04T19:06:12.998Z,101750.11
2022-09-04T19:08:51.633Z,101750.05
2022-09-04T19:11:26.986Z,101755.41
2022-09-04T19:14:10.118Z,101755.71
2022-09-04T19:16:44.136Z,101757.93
2022-09-04T19:19:23.485Z,101760.86
2022-09-04T19:22:18.794Z,101761.09
2022-09-04T19:24:59.402Z,101756.69
2022-09-04T19:27:33.041Z,101758.90
2022-09-04T19:30:23.657Z,101759.84
2022-09-04T19:33:12.343Z,101764.95
2022-09-04T19:35:50.988Z,101768.34
2022-09-04T19:42:39.324Z,101767.52
2022-09-04T19:45:59.932Z,101771.23
2022-09-04T19:46:17.044Z,101772.16
2022-09-04T19:47:42.318Z,101771.89
2022-09-04T19:53:22.374Z,101777.23
2022-09-04T19:53:48.515Z,101779.41
2022-09-04T19:56:30.037Z,101780.40
2022-09-04T19:59:05.874Z,101783.49
2022-09-04T20:01:59.591Z,101787.18
2022-09-04T20:04:43.718Z,101793.08
2022-09-04T20:07:26.080Z,101793.42
2022-09-04T20:09:59.066Z,101795.25
2022-09-04T20:12:36.296Z,101792.14
2022-09-04T20:15:18.089Z,101788.91
2022-09-04T20:18:04.794Z,101788.84
2022-09-04T20:20:45.074Z,101794.75
2022-09-04T20:23:34.582Z,101794.48
2022-09-04T20:26:09.977Z,101808.97
2022-09-04T20:28:51.310Z,101807.84
2022-09-04T20:31:28.798Z,101813.41
2022-09-04T20:34:30.323Z,101812.71
2022-09-04T20:37:13.674Z,101811.95
2022-09-04T20:39:49.241Z,101812.55
2022-09-04T20:42:38.017Z,101814.10
2022-09-04T20:47:44.477Z,101816.37
2022-09-04T20:52:51.516Z,101813.34
2022-09-04T20:53:07.328Z,101814.62
2022-09-04T20:54:43.989Z,101816.31
2022-09-04T21:01:03.643Z,101818.11
2022-09-04T21:03:13.512Z,101823.80
2022-09-04T21:03:35.163Z,101826.89
2022-09-04T21:06:25.326Z,101825.16
2022-09-04T21:09:06.816Z,101825.21
2022-09-04T21:11:42.054Z,101829.34
2022-09-04T21:14:18.737Z,101833.72
2022-09-04T21:17:34.219Z,101835.22
2022-09-04T21:20:24.571Z,101835.95
2022-09-04T21:23:28.822Z,101841.05
2022-09-04T21:26:21.329Z,101844.86
2022-09-04T21:29:10.646Z,101847.17
2022-09-04T21:31:48.050Z,101851.60
2022-09-04T21:34:44.029Z,101853.69
2022-09-04T21:37:23.288Z,101852.75
2022-09-04T21:40:06.045Z,101854.48
2022-09-04T21:43:04.219Z,101861.21
2022-09-04T21:45:43.851Z,101865.39
2022-09-04T21:48:28.307Z,101860.10
2022-09-04T21:51:18.607Z,101862.43
2022-09-04T21:54:02.855Z,101867.04
2022-09-04T21:59:58.925Z,101870.09
2022-09-04T22:02:41.128Z,101872.96
2022-09-04T22:03:09.682Z,101875.93
2022-09-04T22:06:04.156Z,101877.41
2022-09-04T22:13:29.893Z,101882.39
2022-09-04T22:13:39.299Z,101880.03
2022-09-04T22:14:52.937Z,101887.23
2022-09-04T22:17:54.697Z,101885.59
2022-09-04T22:20:54.275Z,101882.64
2022-09-04T22:23:52.524Z,101881.30
2022-09-04T22:26:37.896Z,101878.50
2022-09-04T22:29:39.855Z,101881.63
2022-09-04T22:32:43.837Z,101881.91
2022-09-04T22:35:36.533Z,101881.00
2022-09-04T22:38:10.432Z,101879.66
2022-09-04T22:41:02.097Z,101878.84
2022-09-04T22:43:46.613Z,101873.01
2022-09-04T22:46:42.839Z,101876.74
2022-09-04T22:49:35.978Z,101879.83
2022-09-04T22:52:37.860Z,101877.60
2022-09-04T22:56:22.799Z,101883.83
2022-09-04T22:58:52.372Z,101884.98
2022-09-04T23:01:26.664Z,101885.23
2022-09-04T23:04:35.395Z,101887.17
2022-09-04T23:13:50.645Z,101886.21
2022-09-04T23:13:54.218Z,101886.05
2022-09-04T23:14:05.321Z,101885.86
2022-09-04T23:16:49.444Z,101888.20
2022-09-04T23:25:17.963Z,101897.34
2022-09-04T23:26:53.813Z,101891.42
2022-09-04T23:26:54.232Z,101894.36
2022-09-04T23:29:16.014Z,101894.41
2022-09-04T23:32:22.526Z,101894.05
2022-09-04T23:35:40.418Z,101897.17
2022-09-04T23:38:40.874Z,101895.58
2022-09-04T23:41:53.180Z,101903.02
2022-09-04T23:44:54.235Z,101901.73
2022-09-04T23:48:08.552Z,101908.08
2022-09-04T23:51:40.865Z,101909.27
2022-09-04T23:55:10.874Z,101911.79
2022-09-04T23:58:51.901Z,101908.27
